createdAt,value
2023-03-04T00:00:11.212Z,0.08
2023-03-04T00:02:45.020Z,0.17
2023-03-04T00:05:16.290Z,0.21
2023-03-04T00:09:58.817Z,0.14
2023-03-04T00:12:27.720Z,0.09
2023-03-04T00:14:54.458Z,0.15
2023-03-04T00:17:28.468Z,0.22
2023-03-04T00:20:00.447Z,0.18
2023-03-04T00:22:29.016Z,0.14
2023-03-04T00:24:59.653Z,0.10
2023-03-04T00:27:27.201Z,0.17
2023-03-04T00:29:53.938Z,0.18
2023-03-04T00:32:21.265Z,0.14
2023-03-04T00:34:51.413Z,0.08
2023-03-04T00:37:20.026Z,0.07
2023-03-04T00:39:48.998Z,0.16
2023-03-04T00:42:16.844Z,0.12
2023-03-04T00:44:43.723Z,0.04
2023-03-04T00:47:10.681Z,-0.04
2023-03-04T00:49:39.256Z,-0.07
2023-03-04T00:52:07.375Z,0.01
2023-03-04T00:54:42.460Z,0.04
2023-03-04T00:57:09.472Z,-0.02
2023-03-04T00:59:36.416Z,-0.08
2023-03-04T01:02:03.353Z,-0.14
2023-03-04T01:04:32.975Z,-0.19
2023-03-04T01:07:00.785Z,-0.12
2023-03-04T01:09:29.122Z,-0.04
2023-03-04T01:11:56.459Z,-0.10
2023-03-04T01:14:23.645Z,-0.16
2023-03-04T01:16:50.871Z,-0.22
2023-03-04T01:19:21.162Z,-0.26
2023-03-04T01:21:49.358Z,-0.19
2023-03-04T01:24:19.944Z,-0.12
2023-03-04T01:26:47.630Z,-0.15
2023-03-04T01:29:21.027Z,-0.21
2023-03-04T01:31:52.220Z,-0.25
2023-03-04T01:34:25.981Z,-0.27
2023-03-04T01:36:52.977Z,-0.16
2023-03-04T01:39:19.725Z,-0.14
2023-03-04T01:41:46.986Z,-0.16
2023-03-04T01:44:14.363Z,-0.22
2023-03-04T01:46:48.238Z,-0.30
2023-03-04T01:49:16.537Z,-0.29
2023-03-04T01:51:46.292Z,-0.25
2023-03-04T01:54:13.833Z,-0.33
2023-03-04T01:56:43.065Z,-0.44
2023-03-04T01:59:16.723Z,-0.48
2023-03-04T02:02:04.615Z,-0.43
2023-03-04T02:04:33.700Z,-0.50
2023-03-04T02:07:01.689Z,-0.62
2023-03-04T02:09:29.677Z,-0.66
2023-03-04T02:11:56.400Z,-0.61
2023-03-04T02:14:24.842Z,-0.66
2023-03-04T02:16:55.855Z,-0.75
2023-03-04T02:19:27.515Z,-0.79
2023-03-04T02:21:54.446Z,-0.72
2023-03-04T02:24:32.525Z,-0.75
2023-03-04T02:26:59.753Z,-0.84
2023-03-04T02:29:26.594Z,-0.89
2023-03-04T02:31:53.487Z,-0.82
2023-03-04T02:34:25.516Z,-0.79
2023-03-04T02:36:54.397Z,-0.85
2023-03-04T02:39:25.251Z,-0.90
2023-03-04T02:41:53.036Z,-0.87
2023-03-04T02:44:23.939Z,-0.77
2023-03-04T02:46:51.471Z,-0.78
2023-03-04T02:49:19.104Z,-0.85
2023-03-04T02:51:46.868Z,-0.88
2023-03-04T02:54:22.016Z,-0.81
2023-03-04T02:56:50.863Z,-0.74
2023-03-04T02:59:18.189Z,-0.77
2023-03-04T03:01:50.052Z,-0.83
2023-03-04T03:04:17.917Z,-0.79
2023-03-04T03:06:45.185Z,-0.68
2023-03-04T03:09:16.594Z,-0.71
2023-03-04T03:11:46.774Z,-0.78
2023-03-04T03:14:15.256Z,-0.78
2023-03-04T03:16:42.844Z,-0.69
2023-03-04T03:19:11.700Z,-0.70
2023-03-04T03:21:39.084Z,-0.76
2023-03-04T03:24:05.983Z,-0.79
2023-03-04T03:26:33.894Z,-0.70
2023-03-04T03:29:00.586Z,-0.63
2023-03-04T03:31:28.824Z,-0.67
2023-03-04T03:33:58.801Z,-0.71
2023-03-04T03:36:27.367Z,-0.63
2023-03-04T03:38:54.533Z,-0.61
2023-03-04T03:41:21.318Z,-0.66
2023-03-04T03:43:48.596Z,-0.69
2023-03-04T03:46:15.349Z,-0.63
2023-03-04T03:48:43.118Z,-0.60
2023-03-04T03:51:10.780Z,-0.65
2023-03-04T03:53:37.820Z,-0.69
2023-03-04T03:56:05.385Z,-0.63
2023-03-04T03:58:33.343Z,-0.56
2023-03-04T04:01:00.377Z,-0.57
2023-03-04T04:03:27.120Z,-0.62
2023-03-04T04:05:53.871Z,-0.54
2023-03-04T04:08:24.810Z,-0.50
2023-03-04T04:10:52.617Z,-0.52
2023-03-04T04:13:19.461Z,-0.55
2023-03-04T04:15:53.438Z,-0.57
2023-03-04T04:18:23.352Z,-0.48
2023-03-04T04:20:51.483Z,-0.41
2023-03-04T04:23:18.434Z,-0.45
2023-03-04T04:25:45.224Z,-0.46
2023-03-04T04:28:14.401Z,-0.41
2023-03-04T04:30:41.463Z,-0.44
2023-03-04T04:33:13.293Z,-0.39
2023-03-04T04:35:40.819Z,-0.39
2023-03-04T04:38:08.497Z,-0.46
2023-03-04T04:40:36.700Z,-0.44
2023-03-04T04:43:04.283Z,-0.40
2023-03-04T04:45:33.880Z,-0.46
2023-03-04T04:48:00.910Z,-0.49
2023-03-04T04:50:32.954Z,-0.44
2023-03-04T04:53:00.451Z,-0.44
2023-03-04T04:55:27.834Z,-0.49
2023-03-04T04:57:55.256Z,-0.44
2023-03-04T05:00:22.656Z,-0.37
2023-03-04T05:02:51.009Z,-0.40
2023-03-04T05:05:18.154Z,-0.44
2023-03-04T05:07:51.811Z,-0.37
2023-03-04T05:10:20.762Z,-0.30
2023-03-04T05:12:47.771Z,-0.33
2023-03-04T05:15:15.068Z,-0.36
2023-03-04T05:17:41.791Z,-0.29
2023-03-04T05:20:10.479Z,-0.25
2023-03-04T05:22:37.293Z,-0.29
2023-03-04T05:25:05.030Z,-0.31
2023-03-04T05:27:32.481Z,-0.21
2023-03-04T05:29:59.565Z,-0.15
2023-03-04T05:32:28.246Z,-0.20
2023-03-04T05:34:55.203Z,-0.19
2023-03-04T05:37:22.568Z,-0.08
2023-03-04T05:39:49.902Z,-0.08
2023-03-04T05:42:16.827Z,-0.12
2023-03-04T05:44:44.310Z,-0.06
2023-03-04T05:47:11.357Z,0.03
2023-03-04T05:49:40.551Z,0.00
2023-03-04T05:52:10.535Z,0.02
2023-03-04T05:54:37.422Z,0.13
2023-03-04T05:57:04.209Z,0.13
2023-03-04T05:59:31.092Z,0.10
2023-03-04T06:01:58.475Z,0.12
2023-03-04T06:04:25.294Z,0.21
2023-03-04T06:06:53.498Z,0.19
2023-03-04T06:09:21.355Z,0.14
2023-03-04T06:11:47.949Z,0.15
2023-03-04T06:14:14.844Z,0.23
2023-03-04T06:16:42.880Z,0.20
2023-03-04T06:19:09.827Z,0.13
2023-03-04T06:21:42.074Z,0.18
2023-03-04T06:24:08.894Z,0.22
2023-03-04T06:26:35.951Z,0.17
2023-03-04T06:29:04.266Z,0.21
2023-03-04T06:31:31.692Z,0.29
2023-03-04T06:33:58.572Z,0.26
2023-03-04T06:36:25.257Z,0.23
2023-03-04T06:38:52.043Z,0.32
2023-03-04T06:41:19.928Z,0.38
2023-03-04T06:43:53.716Z,0.38
2023-03-04T06:46:30.067Z,0.38
2023-03-04T06:48:57.592Z,0.44
2023-03-04T06:51:26.556Z,0.57
2023-03-04T06:54:06.460Z,0.56
2023-03-04T06:56:37.590Z,0.52
2023-03-04T06:59:04.678Z,0.58
2023-03-04T07:01:32.856Z,0.65
2023-03-04T07:04:09.865Z,0.63
2023-03-04T07:06:37.694Z,0.63
2023-03-04T07:09:07.999Z,0.76
2023-03-04T07:11:39.730Z,0.81
2023-03-04T07:14:14.888Z,0.79
2023-03-04T07:16:53.214Z,0.86
2023-03-04T07:19:22.441Z,0.93
2023-03-04T07:21:59.308Z,0.92
2023-03-04T07:24:27.146Z,0.92
2023-03-04T07:26:54.613Z,1.05
2023-03-04T07:29:34.674Z,1.18
2023-03-04T07:32:08.637Z,1.19
2023-03-04T07:34:36.566Z,1.17
2023-03-04T07:37:06.494Z,1.26
2023-03-04T07:39:36.118Z,1.34
2023-03-04T07:42:04.085Z,1.36
2023-03-04T07:44:31.199Z,1.37
2023-03-04T07:46:57.980Z,1.42
2023-03-04T07:49:25.095Z,1.57
2023-03-04T07:51:52.136Z,1.72
2023-03-04T07:54:19.738Z,1.77
2023-03-04T07:56:48.603Z,1.77
2023-03-04T07:59:17.121Z,1.79
2023-03-04T08:01:45.652Z,1.78
2023-03-04T08:04:13.853Z,1.87
2023-03-04T08:06:41.284Z,1.99
2023-03-04T08:09:09.655Z,1.98
2023-03-04T08:11:37.539Z,1.93
2023-03-04T08:14:04.892Z,1.95
2023-03-04T08:16:34.804Z,1.99
2023-03-04T08:19:03.019Z,2.04
2023-03-04T08:21:29.750Z,2.08
2023-03-04T08:24:01.800Z,2.21
2023-03-04T08:26:40.362Z,2.29
2023-03-04T08:29:10.211Z,2.29
2023-03-04T08:31:40.227Z,2.28
2023-03-04T08:34:09.979Z,2.28
2023-03-04T08:36:36.880Z,2.20
2023-03-04T08:39:05.328Z,2.09
2023-03-04T08:41:34.116Z,1.97
2023-03-04T08:44:02.543Z,1.87
2023-03-04T08:46:29.759Z,1.77
2023-03-04T08:49:00.234Z,1.73
2023-03-04T08:51:27.869Z,1.83
2023-03-04T08:53:54.930Z,1.82
2023-03-04T08:56:21.739Z,1.77
2023-03-04T08:58:48.731Z,1.73
2023-03-04T09:01:15.542Z,1.67
2023-03-04T09:03:45.580Z,1.64
2023-03-04T09:06:16.265Z,1.65
2023-03-04T09:08:47.970Z,1.74
2023-03-04T09:11:16.965Z,1.75
2023-03-04T09:13:45.651Z,1.78
2023-03-04T09:16:14.247Z,1.85
2023-03-04T09:18:41.215Z,1.90
2023-03-04T09:21:11.615Z,1.95
2023-03-04T09:23:39.882Z,2.00
2023-03-04T09:26:21.377Z,2.08
2023-03-04T09:28:52.503Z,2.15
2023-03-04T09:31:19.410Z,2.20
2023-03-04T09:33:48.768Z,2.26
2023-03-04T09:36:16.807Z,2.32
2023-03-04T09:38:52.302Z,2.37
2023-03-04T09:41:23.502Z,2.43
2023-03-04T09:43:50.496Z,2.45
2023-03-04T09:46:38.073Z,2.46
2023-03-04T09:49:07.308Z,2.49
2023-03-04T09:51:47.902Z,2.46
2023-03-04T09:54:21.860Z,2.42
2023-03-04T09:56:57.131Z,2.40
2023-03-04T10:00:06.565Z,2.39
2023-03-04T10:03:05.665Z,2.38
2023-03-04T10:05:34.430Z,2.40
2023-03-04T10:08:28.849Z,2.43
2023-03-04T10:11:01.964Z,2.45
2023-03-04T10:13:59.019Z,2.45
2023-03-04T10:16:39.968Z,2.42
2023-03-04T10:19:18.436Z,2.35
2023-03-04T10:21:54.987Z,2.26
2023-03-04T10:24:27.173Z,2.19
2023-03-04T10:26:58.143Z,2.13
2023-03-04T10:29:26.422Z,2.08
2023-03-04T10:32:00.595Z,2.06
2023-03-04T10:34:36.265Z,2.01
2023-03-04T10:37:09.265Z,1.99
2023-03-04T10:39:47.538Z,1.92
2023-03-04T10:42:15.022Z,1.83
2023-03-04T10:45:03.792Z,1.76
2023-03-04T10:47:32.269Z,1.72
2023-03-04T10:50:01.800Z,1.72
2023-03-04T10:52:46.836Z,1.73
2023-03-04T10:55:41.693Z,1.83
2023-03-04T10:58:19.457Z,2.29
2023-03-04T11:01:04.966Z,2.89
2023-03-04T11:03:36.475Z,3.50
2023-03-04T11:06:30.438Z,3.99
2023-03-04T11:09:00.477Z,4.48
2023-03-04T11:11:41.840Z,4.77
2023-03-04T11:14:35.138Z,4.80
2023-03-04T11:17:40.146Z,4.74
2023-03-04T11:20:28.686Z,4.71
2023-03-04T11:22:57.810Z,4.60
2023-03-04T11:25:28.229Z,4.53
2023-03-04T11:28:04.305Z,4.50
2023-03-04T11:30:38.196Z,4.38
2023-03-04T11:33:20.609Z,4.23
2023-03-04T11:35:51.189Z,4.18
2023-03-04T11:38:28.958Z,4.08
2023-03-04T11:41:20.477Z,3.81
2023-03-04T11:43:49.083Z,3.47
2023-03-04T11:46:52.579Z,3.24
2023-03-04T11:49:32.420Z,3.04
2023-03-04T11:52:12.420Z,2.94
2023-03-04T11:55:02.732Z,2.87
2023-03-04T11:57:57.863Z,2.83
2023-03-04T12:00:45.427Z,2.79
2023-03-04T12:03:58.086Z,2.79
2023-03-04T12:07:08.125Z,2.82
2023-03-04T12:09:56.819Z,2.77
2023-03-04T12:13:05.284Z,2.71
2023-03-04T12:15:57.846Z,2.66
2023-03-04T12:18:54.720Z,2.61
2023-03-04T12:21:36.793Z,2.57
2023-03-04T12:24:09.401Z,2.55
2023-03-04T12:28:02.796Z,2.54
2023-03-04T12:30:58.810Z,2.47
2023-03-04T12:34:09.272Z,2.42
2023-03-04T12:36:45.298Z,2.39
2023-03-04T12:40:02.988Z,2.38
2023-03-04T12:42:39.462Z,2.36
2023-03-04T12:45:25.574Z,2.37
2023-03-04T12:48:25.398Z,2.39
2023-03-04T13:32:01.065Z,2.18
2023-03-04T13:34:50.901Z,2.15
2023-03-04T13:37:30.978Z,2.15
2023-03-04T13:40:27.519Z,2.11
2023-03-04T13:42:56.564Z,2.06
2023-03-04T13:45:35.835Z,2.01
2023-03-04T13:48:09.480Z,1.95
2023-03-04T13:50:44.547Z,1.90
2023-03-04T13:53:33.775Z,1.86
2023-03-04T13:56:10.456Z,1.84
2023-03-04T13:58:39.165Z,1.83
2023-03-04T14:01:29.114Z,1.84
2023-03-04T14:03:58.910Z,1.85
2023-03-04T14:06:31.547Z,1.88
2023-03-04T14:08:59.775Z,1.89
2023-03-04T14:11:31.615Z,1.89
2023-03-04T14:14:00.588Z,1.87
2023-03-04T14:16:31.056Z,1.88
2023-03-04T14:19:03.681Z,1.87
2023-03-04T14:21:31.950Z,1.86
2023-03-04T14:24:03.732Z,1.84
2023-03-04T14:26:33.109Z,1.81
2023-03-04T14:29:03.141Z,1.78
2023-03-04T14:31:32.063Z,1.74
2023-03-04T14:34:02.416Z,1.72
2023-03-04T14:36:35.532Z,1.69
2023-03-04T14:39:06.033Z,1.68
2023-03-04T14:41:36.812Z,1.66
2023-03-04T14:44:36.165Z,1.67
2023-03-04T14:47:20.182Z,1.69
2023-03-04T14:49:48.694Z,1.71
2023-03-04T14:52:32.960Z,1.71
2023-03-04T14:55:13.958Z,1.70
2023-03-04T14:57:43.685Z,1.70
2023-03-04T15:00:21.868Z,1.71
2023-03-04T15:02:55.651Z,1.71
2023-03-04T15:05:26.681Z,1.71
2023-03-04T15:07:59.915Z,1.71
2023-03-04T15:10:35.604Z,1.70
2023-03-04T15:13:06.305Z,1.69
2023-03-04T15:15:43.295Z,1.67
2023-03-04T15:18:28.097Z,1.67
2023-03-04T15:21:29.993Z,1.67
2023-03-04T15:23:58.335Z,1.66
2023-03-04T15:26:27.153Z,1.65
2023-03-04T15:28:55.306Z,1.62
2023-03-04T15:31:25.879Z,1.60
2023-03-04T15:33:54.939Z,1.59
2023-03-04T15:36:23.520Z,1.58
2023-03-04T15:38:53.451Z,1.57
2023-03-04T15:41:24.020Z,1.58
2023-03-04T15:43:54.766Z,1.59
2023-03-04T15:46:22.882Z,1.58
2023-03-04T15:48:50.860Z,1.56
2023-03-04T15:51:22.587Z,1.55
2023-03-04T15:53:52.455Z,1.53
2023-03-04T15:56:22.966Z,1.51
2023-03-04T15:58:58.206Z,1.50
2023-03-04T16:01:27.553Z,1.48
2023-03-04T16:03:55.789Z,1.47
2023-03-04T16:06:25.624Z,1.45
2023-03-04T16:08:54.576Z,1.45
2023-03-04T16:11:24.962Z,1.44
2023-03-04T16:13:53.282Z,1.43
2023-03-04T16:16:21.301Z,1.43
2023-03-04T16:18:49.788Z,1.43
2023-03-04T16:21:19.249Z,1.41
2023-03-04T16:23:48.390Z,1.40
2023-03-04T16:26:18.503Z,1.37
2023-03-04T16:28:47.260Z,1.35
2023-03-04T16:31:15.571Z,1.34
2023-03-04T16:33:45.080Z,1.34
2023-03-04T16:36:20.277Z,1.36
2023-03-04T16:38:48.895Z,1.39
2023-03-04T16:41:17.885Z,1.37
2023-03-04T16:43:45.813Z,1.36
2023-03-04T16:46:13.939Z,1.32
2023-03-04T16:48:42.333Z,1.30
2023-03-04T16:51:20.826Z,1.30
2023-03-04T16:53:52.104Z,1.42
2023-03-04T16:56:20.901Z,1.46
2023-03-04T16:58:49.336Z,1.44
2023-03-04T17:01:26.190Z,1.41
2023-03-04T17:03:55.227Z,1.36
2023-03-04T17:06:25.782Z,1.36
2023-03-04T17:08:54.073Z,1.34
2023-03-04T17:11:28.033Z,1.34
2023-03-04T17:13:57.974Z,1.32
2023-03-04T17:16:32.886Z,1.31
2023-03-04T17:19:04.988Z,1.32
2023-03-04T17:21:33.892Z,1.44
2023-03-04T17:24:03.624Z,1.47
2023-03-04T17:26:41.200Z,1.47
2023-03-04T17:29:10.069Z,1.42
2023-03-04T17:31:38.806Z,1.38
2023-03-04T17:34:09.364Z,1.36
2023-03-04T17:36:37.746Z,1.35
2023-03-04T17:39:06.301Z,1.29
2023-03-04T17:41:36.316Z,1.33
2023-03-04T17:44:06.120Z,1.44
2023-03-04T17:46:37.150Z,1.48
2023-03-04T17:49:06.100Z,1.44
2023-03-04T17:51:36.628Z,1.40
2023-03-04T17:54:05.834Z,1.34
2023-03-04T17:56:35.787Z,1.31
2023-03-04T17:59:08.399Z,1.29
2023-03-04T18:01:36.523Z,1.34
2023-03-04T18:04:04.909Z,1.39
2023-03-04T18:06:33.265Z,1.34
2023-03-04T18:09:05.974Z,1.30
2023-03-04T18:11:36.934Z,1.28
2023-03-04T18:14:05.152Z,1.25
2023-03-04T18:16:33.561Z,1.22
2023-03-04T18:19:03.553Z,1.33
2023-03-04T18:21:35.967Z,1.38
2023-03-04T18:24:04.625Z,1.35
2023-03-04T18:26:32.916Z,1.33
2023-03-04T18:29:02.493Z,1.31
2023-03-04T18:31:32.475Z,1.28
2023-03-04T18:34:01.818Z,1.26
2023-03-04T18:36:30.553Z,1.30
2023-03-04T18:38:59.655Z,1.37
2023-03-04T18:41:29.353Z,1.34
2023-03-04T18:43:57.514Z,1.29
2023-03-04T18:46:52.492Z,1.25
2023-03-04T18:49:21.156Z,1.21
2023-03-04T18:51:49.389Z,1.18
2023-03-04T18:54:18.512Z,1.26
2023-03-04T18:56:53.216Z,1.29
2023-03-04T18:59:26.572Z,1.26
2023-03-04T19:01:54.607Z,1.24
2023-03-04T19:04:22.685Z,1.22
2023-03-04T19:06:51.148Z,1.19
2023-03-04T19:09:19.917Z,1.17
2023-03-04T19:11:48.100Z,1.26
2023-03-04T19:14:22.296Z,1.28
2023-03-04T19:16:52.036Z,1.27
2023-03-04T19:19:20.409Z,1.25
2023-03-04T19:21:49.202Z,1.23
2023-03-04T19:24:17.454Z,1.17
2023-03-04T19:26:45.538Z,1.13
2023-03-04T19:29:14.027Z,1.22
2023-03-04T19:31:42.620Z,1.20
2023-03-04T19:34:11.189Z,1.12
2023-03-04T19:36:39.172Z,1.06
2023-03-04T19:39:08.824Z,0.98
2023-03-04T19:41:37.229Z,0.93
2023-03-04T19:44:05.297Z,0.98
2023-03-04T19:46:34.783Z,1.03
2023-03-04T19:49:04.748Z,0.96
2023-03-04T19:51:33.274Z,0.91
2023-03-04T19:54:01.906Z,0.89
2023-03-04T19:56:30.029Z,0.89
2023-03-04T19:58:58.000Z,1.00
2023-03-04T20:01:33.791Z,1.02
2023-03-04T20:04:08.197Z,0.97
2023-03-04T20:06:37.401Z,0.96
2023-03-04T20:09:05.955Z,0.94
2023-03-04T20:11:39.214Z,1.00
2023-03-04T20:14:14.841Z,1.15
2023-03-04T20:16:44.193Z,1.17
2023-03-04T20:19:12.877Z,1.17
2023-03-04T20:21:40.856Z,1.15
2023-03-04T20:24:08.889Z,1.14
2023-03-04T20:26:48.125Z,1.15
2023-03-04T20:29:16.716Z,1.26
2023-03-04T20:31:46.235Z,1.31
2023-03-04T20:34:14.640Z,1.29
2023-03-04T20:36:42.885Z,1.30
2023-03-04T20:39:27.402Z,1.30
2023-03-04T20:42:00.728Z,1.28
2023-03-04T20:44:31.783Z,1.18
2023-03-04T20:47:00.804Z,0.94
2023-03-04T20:49:29.257Z,0.69
2023-03-04T20:52:03.048Z,0.47
2023-03-04T20:54:31.528Z,0.34
2023-03-04T20:57:00.029Z,0.35
2023-03-04T20:59:28.197Z,0.38
2023-03-04T21:02:01.529Z,0.31
2023-03-04T21:04:32.530Z,0.26
2023-03-04T21:07:02.313Z,0.20
2023-03-04T21:09:31.650Z,0.15
2023-03-04T21:12:01.095Z,0.23
2023-03-04T21:14:31.802Z,0.30
2023-03-04T21:17:03.180Z,0.25
2023-03-04T21:19:34.300Z,0.16
2023-03-04T21:22:08.502Z,0.07
2023-03-04T21:24:41.246Z,-0.02
2023-03-04T21:27:09.755Z,-0.07
2023-03-04T21:29:39.424Z,0.00
2023-03-04T21:32:23.432Z,0.02
2023-03-04T21:34:53.274Z,-0.04
2023-03-04T21:37:22.446Z,-0.11
2023-03-04T21:39:52.029Z,-0.21
2023-03-04T21:42:21.265Z,-0.31
2023-03-04T21:44:51.440Z,-0.41
2023-03-04T21:47:20.778Z,-0.49
2023-03-04T21:49:48.900Z,-0.54
2023-03-04T21:52:20.701Z,-0.60
2023-03-04T21:54:49.132Z,-0.67
2023-03-04T21:57:19.730Z,-0.74
2023-03-04T21:59:48.499Z,-0.81
2023-03-04T22:02:18.333Z,-0.87
2023-03-04T22:04:48.063Z,-0.94
2023-03-04T22:07:16.567Z,-1.01
2023-03-04T22:09:47.453Z,-1.05
2023-03-04T22:12:19.482Z,-1.10
2023-03-04T22:14:48.159Z,-1.14
2023-03-04T22:17:16.393Z,-1.17
2023-03-04T22:19:45.056Z,-1.20
2023-03-04T22:22:13.224Z,-1.23
2023-03-04T22:24:42.464Z,-1.25
2023-03-04T22:27:10.435Z,-1.15
2023-03-04T22:29:41.366Z,-1.07
2023-03-04T22:32:09.593Z,-1.08
2023-03-04T22:34:39.109Z,-1.12
2023-03-04T22:37:07.413Z,-1.13
2023-03-04T22:39:35.445Z,-1.15
2023-03-04T22:42:03.607Z,-1.17
2023-03-04T22:44:31.671Z,-1.19
2023-03-04T22:47:00.437Z,-1.23
2023-03-04T22:49:28.686Z,-1.25
2023-03-04T22:52:00.628Z,-1.29
2023-03-04T22:54:29.753Z,-1.31
2023-03-04T22:56:58.043Z,-1.33
2023-03-04T22:59:26.058Z,-1.34
2023-03-04T23:01:57.481Z,-1.37
2023-03-04T23:04:26.518Z,-1.41
2023-03-04T23:06:54.693Z,-1.44
2023-03-04T23:09:23.546Z,-1.47
2023-03-04T23:11:52.065Z,-1.50
2023-03-04T23:14:20.720Z,-1.54
2023-03-04T23:16:49.308Z,-1.59
2023-03-04T23:19:17.896Z,-1.64
2023-03-04T23:21:45.949Z,-1.69
2023-03-04T23:24:14.078Z,-1.75
2023-03-04T23:26:42.794Z,-1.81
2023-03-04T23:29:12.353Z,-1.86
2023-03-04T23:31:40.958Z,-1.93
2023-03-04T23:34:12.797Z,-2.01
2023-03-04T23:36:43.101Z,-2.07
2023-03-04T23:39:11.358Z,-2.13
2023-03-04T23:41:41.561Z,-2.21
2023-03-04T23:44:11.039Z,-2.27
2023-03-04T23:46:42.890Z,-2.32
2023-03-04T23:49:12.733Z,-2.38
2023-03-04T23:51:41.201Z,-2.43
2023-03-04T23:54:09.681Z,-2.47
2023-03-04T23:56:38.033Z,-2.51
2023-03-04T23:59:10.080Z,-2.57
